Portada
METAR-TAF:

METAR-TAF

Aeroports :

Russellville Regional Airport

Russellville, Arkansas, Estats Units d'Amèrica

latitud: 35-15-32N, longitud: 093-05-36W, altitud: 123 m

Observació

L'informe es va fer fa 8 minuts, a les 22:24 UTC
Vent 3 kt del Est/Sud-Est
Temperatura 15°C
Humitat 88%
Pressió 1015 hPa
Visibilitat: 4.0 km
Cel ennuvolat a una alçada de 1300 ft
Cel cobert a una alçada de 3800 ft
pluja, boirina

METAR: KRUE 212224Z AUTO 11003KT 2 1/2SM -RA BR BKN013 OVC038 15/13 A2996 RMK AO2 RAB14 P0005 T01500133

Hora: 16:32 (22:32 UTC)


TAF: manca

Observacions i pronòstics meteorològics de més de 4000 aeroports (METAR i TAF).

Les estacions disponibles són els punts grocs i vermells al mapa.

Posi el ratolí al punt desitjat per veure el nom de l'estació.

Feu clic per veure les observacions i els pronòstics meteorològics.

Per canviar el mapa: feu clic els botons verds amb una creu de color negre per apropar; al botó verd amb un guió per allunyar la imatge; o en les fletxes verdes per a mapes adjacents.


METAR-TAF: